Terminal Aerodrome Forecast
Issued by NWS

Home | Current Version | Previous Version | Text Only | Print | Product List | Glossary On
Versions: 1 2 3 4 5 6 7 8 9 10 11 12 13 14 15 16 17 18 19 20 21 22
000
FTUS46 KSGX 031720
TAFCRQ
TAF
KCRQ 031720Z 0318/0418 25007KT P6SM BKN025
     FM031900 25007KT P6SM SCT028
     FM032000 25009KT P6SM SCT030
     FM040000 VRB05KT P6SM BKN022=

USA.gov is the U.S. government's official web portal to all federal, state and local government web resources and services.